Time;durP1;ratioP1;P1;durP2;ratioP2;P2;SDS_P1;SDS_P2;PMS_P1;PMS_P2;Temp;Humidity;BMP_temperature;BMP_pressure;BME280_temperature;BME280_humidity;BME280_pressure;Samples;Min_cycle;Max_cycle;Signal;HPM_P1;HPM_P2
2022/02/27 00:01:03;;;;;;;14.40;13.33;;;0.80;21.60;;;;;;4993269;28;20436;-71
2022/02/27 00:03:28;;;;;;;14.30;13.00;;;0.80;21.10;;;;;;5024231;28;20201;-70
2022/02/27 00:05:54;;;;;;;13.60;12.90;;;0.80;21.60;;;;;;5012591;28;20651;-71
2022/02/27 00:08:19;;;;;;;13.07;12.20;;;0.80;20.80;;;;;;5012365;28;20186;-71
2022/02/27 00:10:45;;;;;;;11.97;10.80;;;0.60;21.70;;;;;;5013608;28;20230;-71
2022/02/27 00:13:10;;;;;;;12.20;11.37;;;0.60;22.60;;;;;;5013305;28;20216;-71
2022/02/27 00:15:36;;;;;;;11.43;10.63;;;0.60;22.00;;;;;;5013499;28;20241;-71
2022/02/27 00:18:02;;;;;;;12.20;11.50;;;0.60;22.70;;;;;;5013840;28;20173;-71
2022/02/27 00:20:27;;;;;;;12.17;11.33;;;0.70;23.10;;;;;;5013622;28;20210;-70
2022/02/27 00:22:54;;;;;;;11.87;11.27;;;0.90;22.70;;;;;;5011838;28;20612;-70
2022/02/27 00:25:19;;;;;;;11.18;10.43;;;1.00;22.60;;;;;;5013436;28;20194;-70
2022/02/27 00:27:45;;;;;;;11.33;10.73;;;1.10;23.00;;;;;;5013803;28;20190;-71
2022/02/27 00:30:11;;;;;;;12.33;10.87;;;1.30;22.60;;;;;;5012390;28;20256;-71
2022/02/27 00:32:37;;;;;;;11.43;9.90;;;1.30;22.40;;;;;;5012912;28;20201;-72
2022/02/27 00:35:04;;;;;;;11.52;10.68;;;1.10;22.30;;;;;;5014319;28;20434;-71
2022/02/27 00:37:30;;;;;;;12.52;11.57;;;0.90;23.60;;;;;;5012918;28;20185;-70
2022/02/27 00:39:56;;;;;;;11.77;10.63;;;0.70;23.60;;;;;;5013114;28;20666;-70
2022/02/27 00:42:21;;;;;;;11.57;10.60;;;0.70;23.20;;;;;;5011780;28;20180;-70
2022/02/27 00:44:47;;;;;;;11.07;10.40;;;0.80;22.90;;;;;;5013807;28;20252;-71
2022/02/27 00:47:12;;;;;;;14.17;11.43;;;0.80;23.20;;;;;;5012700;28;20178;-73
2022/02/27 00:49:38;;;;;;;13.07;12.13;;;0.70;23.20;;;;;;5013114;28;20416;-72
2022/02/27 00:52:04;;;;;;;11.57;10.73;;;0.70;22.80;;;;;;5013243;28;20682;-71
2022/02/27 00:54:29;;;;;;;11.30;10.70;;;0.70;23.30;;;;;;5013852;28;20687;-73
2022/02/27 00:56:55;;;;;;;12.27;11.37;;;0.60;23.70;;;;;;5012584;28;20183;-72
2022/02/27 00:59:21;;;;;;;11.43;10.50;;;0.50;23.80;;;;;;5012769;28;20249;-73
2022/02/27 01:01:46;;;;;;;13.30;12.00;;;0.60;23.30;;;;;;5012627;28;20207;-71
2022/02/27 01:04:12;;;;;;;11.20;10.63;;;0.40;24.20;;;;;;5011596;28;20202;-70
2022/02/27 01:06:38;;;;;;;11.05;10.00;;;0.30;25.20;;;;;;5012444;28;20178;-70
2022/02/27 01:09:04;;;;;;;11.13;10.47;;;0.20;25.30;;;;;;5011764;28;20244;-71
2022/02/27 01:11:32;;;;;;;11.20;10.45;;;0.10;25.20;;;;;;5012432;28;20292;-71
2022/02/27 01:13:57;;;;;;;12.00;11.13;;;0.30;24.80;;;;;;5012971;28;20204;-71
2022/02/27 01:16:23;;;;;;;11.27;10.27;;;0.20;25.30;;;;;;5012563;28;20624;-71
2022/02/27 01:18:50;;;;;;;10.77;9.95;;;0.40;25.40;;;;;;5012343;28;20334;-71
2022/02/27 01:21:15;;;;;;;11.52;10.75;;;0.60;25.50;;;;;;5012640;28;20177;-71
2022/02/27 01:23:45;;;;;;;12.03;11.23;;;0.80;25.50;;;;;;5012207;28;20201;-71
2022/02/27 01:26:11;;;;;;;12.77;12.07;;;1.00;24.80;;;;;;5011017;28;20188;-71
2022/02/27 01:28:38;;;;;;;10.80;10.20;;;1.20;24.20;;;;;;5011907;28;20209;-71
2022/02/27 01:31:04;;;;;;;11.10;10.60;;;1.30;24.00;;;;;;5012946;28;20185;-71
2022/02/27 01:33:29;;;;;;;12.25;11.45;;;1.00;23.90;;;;;;5012042;28;20246;-71
2022/02/27 01:35:55;;;;;;;13.23;10.90;;;0.80;24.30;;;;;;5012246;28;20168;-71
2022/02/27 01:38:21;;;;;;;10.87;10.37;;;0.60;24.40;;;;;;5011826;28;20182;-71
2022/02/27 01:40:46;;;;;;;11.77;10.63;;;0.70;24.70;;;;;;5011715;28;20177;-71
2022/02/27 01:43:12;;;;;;;12.27;11.37;;;0.70;24.10;;;;;;5011737;28;20188;-71
2022/02/27 01:45:37;;;;;;;10.83;10.00;;;0.70;23.90;;;;;;5010772;28;20689;-70
2022/02/27 01:48:03;;;;;;;10.60;10.00;;;0.40;24.80;;;;;;5011772;28;20180;-70
2022/02/27 01:50:29;;;;;;;14.80;11.27;;;0.20;25.30;;;;;;5010637;28;20185;-70
2022/02/27 01:52:54;;;;;;;11.27;10.60;;;0.20;25.30;;;;;;5010392;28;20261;-70
2022/02/27 01:55:21;;;;;;;11.07;10.27;;;0.20;25.30;;;;;;5012928;28;20295;-70
2022/02/27 01:57:46;;;;;;;13.68;12.40;;;0.10;25.00;;;;;;5011648;28;20172;-71
2022/02/27 02:00:14;;;;;;;12.80;10.80;;;0.20;25.00;;;;;;5011759;28;20279;-71
2022/02/27 02:02:41;;;;;;;11.05;10.15;;;0.10;25.10;;;;;;5011609;28;20551;-70
2022/02/27 02:05:07;;;;;;;11.23;10.52;;;0.10;25.20;;;;;;5012568;28;20308;-71
2022/02/27 02:07:34;;;;;;;13.20;10.35;;;0.00;25.20;;;;;;5011855;28;20619;-71
2022/02/27 02:09:59;;;;;;;15.07;12.30;;;0.00;25.20;;;;;;5011867;28;20184;-70
2022/02/27 02:12:25;;;;;;;9.97;9.37;;;-0.10;25.40;;;;;;5012188;28;20213;-71
2022/02/27 02:14:51;;;;;;;12.52;11.00;;;-0.20;26.00;;;;;;5010124;28;20287;-70
2022/02/27 02:17:16;;;;;;;11.20;10.30;;;-0.10;25.50;;;;;;4993231;28;20191;-70
2022/02/27 02:19:42;;;;;;;11.93;11.10;;;-0.10;25.10;;;;;;4992196;28;20243;-70
2022/02/27 02:22:08;;;;;;;13.43;12.13;;;-0.10;25.10;;;;;;4992001;28;20207;-74
2022/02/27 02:24:33;;;;;;;11.53;10.43;;;-0.40;26.40;;;;;;4991784;28;20213;-70
2022/02/27 02:26:59;;;;;;;10.90;10.03;;;-0.50;27.10;;;;;;4989375;28;20196;-72
2022/02/27 02:29:25;;;;;;;13.03;11.43;;;-0.60;27.00;;;;;;5002812;28;20194;-70
2022/02/27 02:31:53;;;;;;;13.88;11.70;;;-0.60;27.00;;;;;;4991934;28;20779;-70
2022/02/27 02:34:21;;;;;;;11.63;10.38;;;-0.40;26.90;;;;;;4994218;28;20328;-71
2022/02/27 02:36:48;;;;;;;11.90;10.45;;;-0.40;27.10;;;;;;4991602;28;20208;-71
2022/02/27 02:39:16;;;;;;;10.88;10.13;;;-0.50;26.90;;;;;;4990081;28;20748;-72
2022/02/27 02:41:43;;;;;;;12.38;11.27;;;-0.50;26.90;;;;;;4992708;28;21421;-71
2022/02/27 02:44:10;;;;;;;13.70;10.07;;;-0.50;27.00;;;;;;4994815;28;20570;-71
2022/02/27 02:46:36;;;;;;;11.55;10.35;;;-0.50;27.20;;;;;;4994670;28;20185;-71
2022/02/27 02:49:06;;;;;;;13.37;11.37;;;-0.60;27.20;;;;;;4995570;28;20756;-73
2022/02/27 02:51:32;;;;;;;11.60;10.70;;;-0.60;27.70;;;;;;4995678;28;20825;-71
2022/02/27 02:53:58;;;;;;;14.53;10.10;;;-0.60;27.90;;;;;;5008873;23;20248;-73
2022/02/27 02:56:23;;;;;;;11.73;10.75;;;-0.60;27.30;;;;;;4950435;29;20432;-72
2022/02/27 02:58:49;;;;;;;10.73;9.80;;;-0.60;27.50;;;;;;4952899;29;20556;-72
2022/02/27 03:01:17;;;;;;;10.40;9.30;;;-0.70;28.60;;;;;;4936484;28;20191;-72
2022/02/27 03:03:45;;;;;;;10.40;9.63;;;-0.70;27.80;;;;;;4936727;29;20470;-72
2022/02/27 03:06:11;;;;;;;10.50;9.70;;;-0.70;28.20;;;;;;4955016;28;20490;-72
2022/02/27 03:08:41;;;;;;;10.10;9.30;;;-0.70;28.20;;;;;;4957126;29;20178;-72
2022/02/27 03:11:07;;;;;;;27.05;9.63;;;-0.80;28.70;;;;;;4966374;28;20189;-72
2022/02/27 03:13:33;;;;;;;9.23;8.63;;;-0.80;29.00;;;;;;4972988;28;20722;-72
2022/02/27 03:15:59;;;;;;;9.95;9.27;;;-0.80;28.70;;;;;;4975283;28;20173;-72
2022/02/27 03:18:24;;;;;;;12.03;10.03;;;-0.80;28.70;;;;;;4974908;28;20657;-73
2022/02/27 03:20:50;;;;;;;11.20;10.10;;;-0.80;28.70;;;;;;4972456;28;20177;-72
2022/02/27 03:23:16;;;;;;;11.30;10.27;;;-0.80;28.70;;;;;;4952442;28;20558;-72
2022/02/27 03:25:41;;;;;;;10.67;9.80;;;-0.80;28.80;;;;;;4954515;28;20252;-72
2022/02/27 03:28:07;;;;;;;10.20;9.40;;;-0.70;29.10;;;;;;4958086;28;20232;-72
2022/02/27 03:30:36;;;;;;;11.47;10.57;;;-0.80;29.40;;;;;;4976684;28;20634;-72
2022/02/27 03:33:02;;;;;;;10.80;9.90;;;-0.70;29.20;;;;;;4958173;28;20208;-72
2022/02/27 03:35:28;;;;;;;10.93;9.70;;;-0.80;29.10;;;;;;4957212;28;20256;-72
2022/02/27 03:37:53;;;;;;;10.43;9.63;;;-0.70;28.90;;;;;;4979652;28;20185;-70
2022/02/27 03:40:20;;;;;;;11.60;10.53;;;-0.70;28.70;;;;;;4960377;28;20355;-70
2022/02/27 03:42:46;;;;;;;15.95;9.60;;;-0.60;28.40;;;;;;4971079;28;20197;-70
2022/02/27 03:45:12;;;;;;;10.35;9.35;;;-0.70;28.70;;;;;;4954377;28;20190;-70
2022/02/27 03:47:38;;;;;;;9.90;9.15;;;-0.70;28.40;;;;;;4963529;28;20192;-71
2022/02/27 03:50:05;;;;;;;10.53;9.63;;;-0.70;28.70;;;;;;4955271;28;20696;-71
2022/02/27 03:52:30;;;;;;;10.30;9.50;;;-0.70;28.70;;;;;;4959921;28;20197;-71
2022/02/27 03:54:59;;;;;;;9.53;8.80;;;-0.80;29.10;;;;;;4951974;28;20710;-71
2022/02/27 03:57:25;;;;;;;13.13;9.40;;;-0.60;30.00;;;;;;4954730;28;20662;-71
2022/02/27 03:59:51;;;;;;;9.43;8.80;;;-0.50;29.40;;;;;;4953964;28;20216;-71
2022/02/27 04:02:16;;;;;;;9.33;8.63;;;-0.60;29.50;;;;;;4954034;28;20429;-71
2022/02/27 04:04:42;;;;;;;10.90;9.90;;;-0.50;29.70;;;;;;4953233;29;20211;-71
2022/02/27 04:07:07;;;;;;;12.43;9.23;;;-0.50;29.30;;;;;;4957672;28;20253;-70
2022/02/27 04:09:33;;;;;;;9.23;8.33;;;-0.40;29.50;;;;;;4953756;28;20261;-71
2022/02/27 04:11:58;;;;;;;10.33;9.33;;;-0.40;29.50;;;;;;4954069;28;20210;-71
2022/02/27 04:14:24;;;;;;;14.90;9.27;;;-0.30;29.00;;;;;;4955452;28;20203;-71
2022/02/27 04:16:50;;;;;;;10.30;9.50;;;-0.30;28.90;;;;;;4956412;29;20241;-71
2022/02/27 04:19:15;;;;;;;10.10;9.30;;;-0.20;28.80;;;;;;4954284;28;20314;-71
2022/02/27 04:21:41;;;;;;;9.87;8.80;;;-0.30;28.20;;;;;;4954789;29;20532;-71
2022/02/27 04:24:06;;;;;;;11.00;9.90;;;-0.30;28.30;;;;;;4955341;29;20233;-71
2022/02/27 04:26:32;;;;;;;10.70;9.73;;;-0.40;28.60;;;;;;4955080;28;20743;-71
2022/02/27 04:28:57;;;;;;;15.03;10.07;;;-0.40;28.80;;;;;;4952504;29;20322;-71
2022/02/27 04:31:23;;;;;;;11.10;10.00;;;-0.40;28.30;;;;;;4951369;28;20213;-71
2022/02/27 04:33:49;;;;;;;10.07;9.27;;;-0.50;28.40;;;;;;4973182;28;20194;-71
2022/02/27 04:36:14;;;;;;;9.90;9.13;;;-0.50;27.80;;;;;;4963113;28;20180;-71
2022/02/27 04:38:40;;;;;;;10.47;8.97;;;-0.60;28.70;;;;;;4965610;28;20444;-71
2022/02/27 04:41:06;;;;;;;11.10;9.80;;;-0.70;28.80;;;;;;4964617;28;20647;-71
2022/02/27 04:43:31;;;;;;;8.97;8.20;;;-0.60;29.10;;;;;;4953271;28;20248;-71
2022/02/27 04:45:57;;;;;;;10.13;9.20;;;-0.70;29.70;;;;;;4962088;28;20237;-71
2022/02/27 04:48:23;;;;;;;9.13;8.33;;;-0.60;31.10;;;;;;4951433;28;20206;-71
2022/02/27 04:50:48;;;;;;;9.63;8.93;;;-0.50;30.40;;;;;;4972662;28;20933;-71
2022/02/27 04:53:14;;;;;;;10.03;8.97;;;-0.50;30.00;;;;;;4961037;28;20232;-71
2022/02/27 04:55:39;;;;;;;9.83;8.93;;;-0.40;29.80;;;;;;4951789;28;20230;-71
2022/02/27 04:58:05;;;;;;;9.93;9.03;;;-0.50;29.20;;;;;;4961002;28;20198;-71
2022/02/27 05:00:31;;;;;;;9.90;8.90;;;-0.40;29.30;;;;;;4957638;28;20209;-71
2022/02/27 05:02:56;;;;;;;10.23;9.23;;;-0.50;28.90;;;;;;4965274;28;20179;-71
2022/02/27 05:05:22;;;;;;;10.33;8.37;;;-0.50;28.90;;;;;;4962740;28;20702;-71
2022/02/27 05:07:47;;;;;;;11.77;8.97;;;-0.40;28.60;;;;;;4974752;28;20190;-72
2022/02/27 05:10:13;;;;;;;11.20;10.37;;;-0.50;28.20;;;;;;4953626;28;20221;-71
2022/02/27 05:12:40;;;;;;;14.30;9.83;;;-0.60;28.60;;;;;;4954711;28;20206;-71
2022/02/27 05:15:07;;;;;;;10.48;9.63;;;-0.60;29.50;;;;;;4955567;29;20285;-71
2022/02/27 05:17:33;;;;;;;9.95;9.00;;;-0.60;29.00;;;;;;4951434;28;20203;-71
2022/02/27 05:19:59;;;;;;;10.00;9.07;;;-0.70;29.70;;;;;;4952490;28;20269;-71
2022/02/27 05:22:24;;;;;;;17.20;9.80;;;-0.70;29.70;;;;;;4952235;28;20277;-71
2022/02/27 05:24:50;;;;;;;10.50;9.70;;;-0.90;30.80;;;;;;4952923;28;20209;-71
2022/02/27 05:27:16;;;;;;;13.60;9.33;;;-0.90;30.90;;;;;;4952411;29;20429;-72
2022/02/27 05:29:41;;;;;;;9.67;8.87;;;-0.90;30.80;;;;;;4956471;29;20182;-72
2022/02/27 05:32:07;;;;;;;10.33;8.87;;;-1.00;30.50;;;;;;4963196;28;20284;-72
2022/02/27 05:34:32;;;;;;;9.53;8.60;;;-0.90;30.30;;;;;;4970981;28;20355;-72
2022/02/27 05:36:59;;;;;;;9.90;9.30;;;-0.90;30.00;;;;;;4971657;28;20182;-72
2022/02/27 05:39:25;;;;;;;9.13;8.43;;;-1.00;31.20;;;;;;4976177;28;20173;-72
2022/02/27 05:41:50;;;;;;;12.20;9.37;;;-0.90;31.20;;;;;;4974600;28;20173;-72
2022/02/27 05:44:16;;;;;;;10.47;9.47;;;-0.90;30.30;;;;;;4973566;28;20292;-72
2022/02/27 05:46:41;;;;;;;9.90;9.00;;;-1.00;30.00;;;;;;4974744;28;20221;-72
2022/02/27 05:49:07;;;;;;;11.10;9.37;;;-1.00;30.40;;;;;;4972824;28;20224;-72
2022/02/27 05:51:32;;;;;;;11.33;9.17;;;-1.00;30.20;;;;;;4970416;28;20221;-71
2022/02/27 05:53:58;;;;;;;11.17;9.10;;;-0.90;30.30;;;;;;4972426;28;20217;-70
2022/02/27 05:56:23;;;;;;;9.13;8.33;;;-0.80;31.60;;;;;;4974665;28;20268;-69
2022/02/27 05:58:51;;;;;;;9.03;8.23;;;-0.80;31.30;;;;;;4971497;28;20188;-70
2022/02/27 06:01:16;;;;;;;10.40;9.38;;;-0.70;31.00;;;;;;4988950;28;20191;-69
2022/02/27 06:03:42;;;;;;;8.80;8.20;;;-0.50;31.70;;;;;;4974178;28;20260;-69
2022/02/27 06:06:07;;;;;;;12.13;9.57;;;-0.40;31.30;;;;;;4973100;28;20205;-69
2022/02/27 06:08:33;;;;;;;8.37;7.87;;;-0.20;30.70;;;;;;4975071;28;20177;-70
2022/02/27 06:10:58;;;;;;;9.43;8.73;;;-0.10;29.90;;;;;;4976937;28;20182;-70
2022/02/27 06:13:24;;;;;;;9.53;8.83;;;-0.10;30.00;;;;;;4976889;28;20222;-69
2022/02/27 06:15:49;;;;;;;8.93;8.43;;;0.10;29.30;;;;;;4976953;28;20249;-70
2022/02/27 06:18:15;;;;;;;15.13;10.03;;;0.20;29.10;;;;;;4976647;28;20209;-70
2022/02/27 06:20:40;;;;;;;9.77;8.97;;;0.20;28.60;;;;;;4976784;28;20181;-70
2022/02/27 06:23:09;;;;;;;15.47;10.40;;;0.40;27.80;;;;;;4976535;28;20185;-70
2022/02/27 06:25:35;;;;;;;9.63;9.05;;;0.60;27.50;;;;;;4975355;28;20204;-69
2022/02/27 06:28:00;;;;;;;10.20;9.57;;;0.60;26.90;;;;;;4991454;28;20543;-69
2022/02/27 06:30:27;;;;;;;10.47;9.60;;;0.60;26.50;;;;;;4976786;28;20183;-70
2022/02/27 06:32:53;;;;;;;11.50;10.43;;;0.50;26.90;;;;;;4976205;28;20789;-70
2022/02/27 06:35:22;;;;;;;10.73;9.70;;;0.40;27.60;;;;;;4976613;28;20226;-69
2022/02/27 06:37:48;;;;;;;11.05;10.25;;;0.50;27.50;;;;;;4991308;28;20424;-70
2022/02/27 06:40:14;;;;;;;9.75;8.95;;;0.40;27.50;;;;;;4974965;28;20178;-70
2022/02/27 06:42:41;;;;;;;10.13;9.23;;;0.40;27.60;;;;;;4976265;28;20175;-70
2022/02/27 06:45:08;;;;;;;12.02;9.30;;;0.50;27.20;;;;;;4976875;28;20218;-70
2022/02/27 06:47:34;;;;;;;10.98;10.00;;;0.50;27.50;;;;;;4991045;28;20561;-70
2022/02/27 06:49:59;;;;;;;10.20;9.43;;;0.50;27.50;;;;;;4974307;28;20191;-70
2022/02/27 06:52:25;;;;;;;16.90;10.50;;;0.50;27.60;;;;;;4986545;28;20647;-70
2022/02/27 06:54:51;;;;;;;11.03;9.50;;;0.60;27.10;;;;;;4974101;28;20693;-70
2022/02/27 06:57:17;;;;;;;10.27;9.32;;;0.70;26.90;;;;;;4970078;28;20594;-69
2022/02/27 06:59:42;;;;;;;11.77;10.97;;;0.70;26.70;;;;;;4955411;29;20210;-69
2022/02/27 07:02:08;;;;;;;11.73;9.37;;;0.70;26.80;;;;;;4974498;28;20657;-70
2022/02/27 07:04:35;;;;;;;15.17;10.50;;;0.80;26.70;;;;;;4975682;28;20215;-69
2022/02/27 07:07:00;;;;;;;11.63;10.75;;;0.80;26.00;;;;;;4975629;28;20184;-69
2022/02/27 07:09:26;;;;;;;9.97;9.27;;;0.80;26.40;;;;;;4970278;28;20550;-70
2022/02/27 07:11:52;;;;;;;11.17;10.00;;;0.80;26.50;;;;;;4972255;28;20202;-69
2022/02/27 07:14:18;;;;;;;11.23;10.23;;;0.90;26.20;;;;;;4975426;28;20199;-70
2022/02/27 07:16:44;;;;;;;13.43;12.25;;;1.00;25.80;;;;;;4975456;28;20225;-69
2022/02/27 07:19:10;;;;;;;10.93;10.03;;;1.10;25.60;;;;;;4975065;28;20271;-69
2022/02/27 07:21:35;;;;;;;11.63;10.70;;;1.00;25.50;;;;;;4975500;28;20196;-69
2022/02/27 07:24:01;;;;;;;10.70;10.00;;;1.20;24.90;;;;;;4954271;28;20213;-69
2022/02/27 07:26:26;;;;;;;11.57;10.60;;;1.20;24.80;;;;;;4960904;28;20278;-69
2022/02/27 07:28:52;;;;;;;11.77;11.00;;;1.30;24.90;;;;;;4964268;28;20808;-69
2022/02/27 07:31:18;;;;;;;11.77;10.77;;;1.30;24.30;;;;;;4980519;28;20467;-69
2022/02/27 07:33:44;;;;;;;11.13;10.32;;;1.40;24.20;;;;;;4979015;28;20215;-70
2022/02/27 07:36:10;;;;;;;11.37;10.77;;;1.50;23.90;;;;;;4966807;28;20189;-70
2022/02/27 07:38:35;;;;;;;11.33;10.50;;;1.60;23.60;;;;;;4968967;28;20180;-70
2022/02/27 07:41:01;;;;;;;11.70;10.80;;;1.60;23.30;;;;;;4976715;28;20196;-70
2022/02/27 07:43:27;;;;;;;12.47;11.57;;;1.70;23.30;;;;;;4971995;28;20228;-70
2022/02/27 07:45:52;;;;;;;12.40;11.40;;;1.80;22.60;;;;;;4966660;28;20248;-69
2022/02/27 07:48:18;;;;;;;12.87;11.90;;;1.70;23.00;;;;;;4951619;28;20191;-69
2022/02/27 07:50:43;;;;;;;11.00;10.30;;;1.80;23.00;;;;;;4970742;28;20190;-70
2022/02/27 07:53:09;;;;;;;12.67;11.87;;;1.80;22.70;;;;;;4969529;28;20251;-69
2022/02/27 07:55:35;;;;;;;11.57;10.80;;;1.90;21.90;;;;;;4971068;28;20274;-68
2022/02/27 07:58:00;;;;;;;12.13;11.33;;;2.00;22.00;;;;;;4971388;28;20235;-69
2022/02/27 08:00:26;;;;;;;10.37;9.83;;;1.80;22.80;;;;;;4970578;28;20194;-70
2022/02/27 08:02:52;;;;;;;12.57;11.57;;;2.10;23.00;;;;;;4971046;28;20200;-69
2022/02/27 08:05:18;;;;;;;12.20;11.03;;;2.20;22.90;;;;;;4972928;28;20451;-69
2022/02/27 08:07:43;;;;;;;13.15;12.35;;;2.40;20.30;;;;;;4974691;28;20543;-70
2022/02/27 08:10:12;;;;;;;11.50;10.70;;;2.50;19.70;;;;;;4952610;28;21079;-70
2022/02/27 08:12:45;;;;;;;13.52;12.73;;;2.70;18.80;;;;;;4956128;28;20201;-70
2022/02/27 08:15:12;;;;;;;12.52;11.73;;;2.90;18.80;;;;;;4974360;28;20685;-69
2022/02/27 08:17:39;;;;;;;12.93;12.13;;;3.10;17.50;;;;;;4974432;28;20228;-70
2022/02/27 08:20:05;;;;;;;13.15;12.20;;;3.10;16.50;;;;;;4973506;28;20173;-69
2022/02/27 08:22:31;;;;;;;11.48;10.88;;;3.20;16.80;;;;;;4965812;28;20182;-70
2022/02/27 08:24:57;;;;;;;13.30;12.30;;;3.40;17.70;;;;;;4965411;28;20205;-70
2022/02/27 08:27:22;;;;;;;13.03;12.07;;;3.50;16.40;;;;;;4969282;28;20253;-70
2022/02/27 08:29:49;;;;;;;13.23;12.10;;;3.60;15.90;;;;;;4973001;28;20185;-70
2022/02/27 08:32:16;;;;;;;13.15;12.35;;;3.60;16.00;;;;;;4973277;28;20901;-70
2022/02/27 08:34:42;;;;;;;13.07;12.38;;;3.60;15.80;;;;;;4958892;28;20209;-69
2022/02/27 08:37:08;;;;;;;14.05;13.15;;;3.70;16.00;;;;;;4972690;28;20273;-70
2022/02/27 08:39:34;;;;;;;12.87;12.17;;;3.80;15.70;;;;;;4974231;28;20686;-69
2022/02/27 08:42:01;;;;;;;12.60;11.80;;;3.90;16.20;;;;;;4970150;28;20441;-70
2022/02/27 08:44:33;;;;;;;13.45;12.75;;;4.00;16.20;;;;;;4964786;28;20209;-69
2022/02/27 08:47:03;;;;;;;13.70;12.90;;;4.10;16.30;;;;;;4966620;28;20193;-69
2022/02/27 08:49:29;;;;;;;13.88;12.57;;;4.00;15.20;;;;;;4959136;28;20235;-69
2022/02/27 08:51:54;;;;;;;14.80;13.70;;;4.10;15.30;;;;;;4970689;28;20197;-69
2022/02/27 08:54:20;;;;;;;13.13;12.43;;;4.20;14.20;;;;;;4970744;28;20455;-69
2022/02/27 08:56:45;;;;;;;14.87;14.00;;;4.20;14.00;;;;;;4952877;28;20699;-69
2022/02/27 08:59:11;;;;;;;13.43;12.73;;;4.20;14.10;;;;;;4954037;28;20751;-69
2022/02/27 09:01:37;;;;;;;13.87;13.10;;;4.30;14.70;;;;;;4970844;28;20276;-69
2022/02/27 09:04:02;;;;;;;12.90;12.10;;;4.40;14.20;;;;;;4972038;28;20280;-69
2022/02/27 09:06:28;;;;;;;13.07;12.10;;;4.50;14.50;;;;;;4973687;28;20276;-69
2022/02/27 09:08:53;;;;;;;13.07;12.37;;;4.60;13.90;;;;;;4973815;28;20189;-69
2022/02/27 09:11:19;;;;;;;13.00;12.10;;;4.70;14.00;;;;;;4973576;28;20181;-69
2022/02/27 09:13:45;;;;;;;13.50;12.40;;;4.70;13.10;;;;;;4973712;28;20181;-69
2022/02/27 09:16:10;;;;;;;14.30;13.40;;;4.60;12.70;;;;;;4974196;28;20335;-69
2022/02/27 09:18:36;;;;;;;14.50;13.80;;;4.70;13.50;;;;;;4973597;28;20685;-69
2022/02/27 09:21:02;;;;;;;13.73;12.93;;;4.70;13.10;;;;;;4973761;28;20190;-69
2022/02/27 09:23:28;;;;;;;13.85;13.25;;;4.80;13.40;;;;;;4973642;28;20182;-69
2022/02/27 09:25:53;;;;;;;14.60;13.80;;;4.80;12.50;;;;;;4973691;28;20209;-69
2022/02/27 09:28:19;;;;;;;13.90;13.30;;;4.90;13.40;;;;;;4973488;28;20177;-70
2022/02/27 09:30:45;;;;;;;14.67;13.77;;;5.00;12.00;;;;;;4958609;28;20181;-69
2022/02/27 09:33:11;;;;;;;12.53;11.80;;;4.80;12.70;;;;;;4973417;28;20289;-69
2022/02/27 09:35:37;;;;;;;13.40;12.17;;;5.00;13.50;;;;;;4973370;28;20199;-69
2022/02/27 09:38:04;;;;;;;13.32;12.38;;;5.10;13.30;;;;;;4973320;28;20758;-69
2022/02/27 09:40:29;;;;;;;13.90;12.75;;;5.20;11.70;;;;;;4973257;28;20237;-69
2022/02/27 09:42:55;;;;;;;14.30;13.27;;;5.30;11.20;;;;;;4972084;28;20197;-69
2022/02/27 09:45:22;;;;;;;13.98;13.27;;;5.30;10.70;;;;;;4972528;28;20727;-69
2022/02/27 09:47:52;;;;;;;14.65;13.65;;;5.30;10.20;;;;;;4973145;28;20185;-69
2022/02/27 09:50:19;;;;;;;13.30;12.40;;;5.30;10.50;;;;;;4973350;28;20214;-69
2022/02/27 09:52:46;;;;;;;13.38;12.35;;;5.40;10.30;;;;;;4973358;28;20228;-69
2022/02/27 09:55:15;;;;;;;14.25;13.52;;;5.40;9.80;;;;;;4972516;28;20260;-69
2022/02/27 09:57:46;;;;;;;14.02;13.40;;;5.30;9.40;;;;;;4972924;28;20182;-69
2022/02/27 10:00:13;;;;;;;14.48;13.57;;;5.30;9.70;;;;;;4973144;28;20208;-70
2022/02/27 10:03:02;;;;;;;14.68;13.98;;;5.30;9.30;;;;;;4972743;28;20193;-71
2022/02/27 10:05:27;;;;;;;14.60;13.82;;;5.40;9.00;;;;;;4971885;28;20622;-70
2022/02/27 10:08:00;;;;;;;13.17;12.57;;;5.50;8.60;;;;;;4972773;28;20265;-70
2022/02/27 10:10:26;;;;;;;13.93;13.23;;;5.50;7.10;;;;;;4973019;28;20266;-70
2022/02/27 10:12:52;;;;;;;14.25;13.55;;;5.50;6.80;;;;;;4972166;28;20219;-70
2022/02/27 10:15:18;;;;;;;14.30;13.60;;;5.60;6.30;;;;;;4971903;28;20546;-71
2022/02/27 10:17:44;;;;;;;13.33;12.83;;;5.60;6.00;;;;;;4972555;28;20174;-71
2022/02/27 10:20:15;;;;;;;13.83;13.13;;;5.70;5.30;;;;;;4972778;28;20825;-70
2022/02/27 10:22:44;;;;;;;14.02;13.38;;;5.70;5.30;;;;;;4972796;28;20195;-70
2022/02/27 10:25:20;;;;;;;13.40;12.80;;;5.70;5.00;;;;;;4972564;28;20247;-72
2022/02/27 10:27:49;;;;;;;12.48;11.98;;;5.80;5.10;;;;;;4972663;28;20180;-70
2022/02/27 10:30:26;;;;;;;13.20;12.50;;;5.80;5.50;;;;;;4972739;28;20203;-70
2022/02/27 10:32:56;;;;;;;15.57;14.55;;;5.90;5.70;;;;;;4972582;28;20594;-70
2022/02/27 10:35:48;;;;;;;14.00;13.18;;;5.90;5.00;;;;;;4956199;28;20630;-70
2022/02/27 10:38:44;;;;;;;12.90;12.30;;;5.80;4.90;;;;;;4948258;28;20561;-73
2022/02/27 10:41:12;;;;;;;14.38;13.57;;;5.80;5.20;;;;;;4948159;28;20424;-71
2022/02/27 10:43:45;;;;;;;14.30;13.45;;;5.90;5.70;;;;;;4945694;28;20190;-72
2022/02/27 10:46:12;;;;;;;15.80;14.33;;;6.00;5.10;;;;;;4952570;28;20183;-71
2022/02/27 10:48:38;;;;;;;13.50;12.80;;;5.90;5.80;;;;;;4961547;28;20429;-70
2022/02/27 10:51:08;;;;;;;13.40;12.70;;;5.90;5.20;;;;;;4972513;28;20265;-70
2022/02/27 10:53:39;;;;;;;13.25;12.70;;;6.00;5.90;;;;;;4972194;28;20257;-70
2022/02/27 10:56:06;;;;;;;14.40;13.65;;;6.00;6.30;;;;;;4975199;28;20242;-70
2022/02/27 10:58:44;;;;;;;14.83;14.03;;;6.00;6.20;;;;;;4975761;28;20189;-70
2022/02/27 11:01:21;;;;;;;15.18;14.25;;;6.20;7.00;;;;;;4976145;28;20408;-71
2022/02/27 11:03:48;;;;;;;14.10;13.50;;;6.30;6.40;;;;;;4975677;28;20660;-70
2022/02/27 11:06:14;;;;;;;13.40;12.80;;;6.30;6.80;;;;;;4975909;28;20496;-70
2022/02/27 11:08:41;;;;;;;14.95;14.25;;;6.40;7.40;;;;;;4975706;28;20751;-70
2022/02/27 11:11:08;;;;;;;14.43;13.63;;;6.40;7.80;;;;;;4975205;28;20190;-70
2022/02/27 11:13:34;;;;;;;15.20;14.13;;;6.50;7.70;;;;;;4975577;28;20546;-71
2022/02/27 11:16:02;;;;;;;14.47;13.67;;;6.60;6.40;;;;;;4975875;28;20475;-70
2022/02/27 11:18:28;;;;;;;15.00;14.30;;;6.60;6.20;;;;;;4975069;28;20955;-70
2022/02/27 11:20:57;;;;;;;15.90;14.90;;;6.60;6.40;;;;;;4976027;28;20419;-70
2022/02/27 11:23:24;;;;;;;14.87;14.17;;;6.70;5.90;;;;;;4975503;28;20194;-70
2022/02/27 11:25:51;;;;;;;15.50;14.80;;;6.60;5.90;;;;;;4975647;28;20453;-70
2022/02/27 11:28:20;;;;;;;14.40;13.70;;;6.50;6.10;;;;;;4975186;28;20431;-70
2022/02/27 11:30:49;;;;;;;16.20;15.10;;;6.60;6.20;;;;;;4975653;28;20835;-70
2022/02/27 11:33:21;;;;;;;15.50;14.80;;;6.70;5.50;;;;;;4975031;28;20559;-70
2022/02/27 11:35:55;;;;;;;15.70;14.80;;;6.70;6.20;;;;;;4967701;28;20478;-73
2022/02/27 11:38:30;;;;;;;16.30;15.60;;;6.70;6.20;;;;;;4974072;28;20427;-73
2022/02/27 11:41:17;;;;;;;15.40;14.60;;;6.80;5.80;;;;;;4971829;28;20556;-74
2022/02/27 11:43:52;;;;;;;14.70;14.00;;;6.90;5.40;;;;;;4975053;28;20502;-71
2022/02/27 11:46:37;;;;;;;16.23;15.13;;;6.90;3.60;;;;;;4959277;28;20420;-73
2022/02/27 11:49:15;;;;;;;14.30;13.60;;;6.90;5.40;;;;;;4956490;28;20414;-74
2022/02/27 11:51:45;;;;;;;14.90;14.30;;;7.00;4.30;;;;;;4963745;28;20460;-74
2022/02/27 11:54:21;;;;;;;15.20;14.40;;;7.10;3.30;;;;;;4959161;28;20826;-74
2022/02/27 11:57:10;;;;;;;14.30;13.70;;;7.20;3.30;;;;;;4956246;28;20426;-73
2022/02/27 12:00:05;;;;;;;15.80;14.93;;;7.30;3.10;;;;;;4975029;28;20900;-74
2022/02/27 12:02:35;;;;;;;15.10;14.50;;;7.30;2.60;;;;;;4975368;28;20443;-74
2022/02/27 12:05:21;;;;;;;14.60;13.97;;;7.30;3.60;;;;;;4975029;28;20490;-73
2022/02/27 12:08:07;;;;;;;14.87;14.07;;;7.40;4.30;;;;;;4975047;28;20423;-73
2022/02/27 12:10:44;;;;;;;14.30;13.60;;;7.40;4.30;;;;;;4973335;28;20436;-73
2022/02/27 12:13:30;;;;;;;15.90;15.00;;;7.30;4.30;;;;;;4974851;28;20977;-73
2022/02/27 12:16:01;;;;;;;14.87;14.27;;;7.30;4.20;;;;;;4974956;28;20440;-73
2022/02/27 12:18:27;;;;;;;14.57;13.83;;;7.40;3.30;;;;;;4974616;28;20490;-73
2022/02/27 12:20:58;;;;;;;14.80;14.00;;;7.10;3.50;;;;;;4974979;28;20417;-73
2022/02/27 12:23:35;;;;;;;15.50;14.70;;;7.00;2.70;;;;;;4974744;28;20181;-73
2022/02/27 12:26:05;;;;;;;15.23;14.50;;;7.10;2.60;;;;;;4974693;28;20424;-73
2022/02/27 12:28:49;;;;;;;14.43;13.63;;;6.90;2.50;;;;;;4974433;28;20487;-70
2022/02/27 12:31:29;;;;;;;13.70;13.10;;;7.10;3.20;;;;;;4955057;28;20422;-70
2022/02/27 12:33:56;;;;;;;15.23;14.33;;;7.10;3.20;;;;;;4968892;28;20837;-70
2022/02/27 12:36:23;;;;;;;15.67;14.40;;;7.40;3.70;;;;;;4974199;28;20417;-70
2022/02/27 12:38:53;;;;;;;14.50;13.90;;;7.40;4.30;;;;;;4974581;28;20930;-70
2022/02/27 12:41:19;;;;;;;15.10;14.40;;;7.60;5.00;;;;;;4974121;28;20437;-69